sensor_id;sensor_type;location;lat;lon;timestamp;P1;durP1;ratioP1;P2;durP2;ratioP2
85815;SDS011;76552;51.206;4.424;2024-03-08T00:00:03;49.12;;;26.92;;
85815;SDS011;76552;51.206;4.424;2024-03-08T00:00:17;50.26;;;27.36;;
85815;SDS011;76552;51.206;4.424;2024-03-08T00:00:26;52.06;;;27.70;;
85815;SDS011;76552;51.206;4.424;2024-03-08T00:00:31;51.55;;;27.50;;
85815;SDS011;76552;51.206;4.424;2024-03-08T00:00:38;52.33;;;27.67;;
85815;SDS011;76552;51.206;4.424;2024-03-08T00:00:45;51.20;;;26.97;;
85815;SDS011;76552;51.206;4.424;2024-03-08T00:00:50;50.03;;;26.73;;
85815;SDS011;76552;51.206;4.424;2024-03-08T00:00:56;50.78;;;26.58;;
85815;SDS011;76552;51.206;4.424;2024-03-08T00:01:02;50.35;;;26.27;;
85815;SDS011;76552;51.206;4.424;2024-03-08T00:01:08;49.55;;;25.92;;
85815;SDS011;76552;51.206;4.424;2024-03-08T00:01:13;48.80;;;26.07;;
85815;SDS011;76552;51.206;4.424;2024-03-08T00:01:18;49.03;;;26.43;;
85815;SDS011;76552;51.206;4.424;2024-03-08T00:01:24;51.05;;;26.80;;
85815;SDS011;76552;51.206;4.424;2024-03-08T00:01:29;50.90;;;26.70;;
85815;SDS011;76552;51.206;4.424;2024-03-08T00:01:35;50.97;;;26.70;;
85815;SDS011;76552;51.206;4.424;2024-03-08T00:01:40;51.35;;;26.75;;
85815;SDS011;76552;51.206;4.424;2024-03-08T00:01:45;52.50;;;26.60;;
85815;SDS011;76552;51.206;4.424;2024-03-08T00:01:51;50.30;;;25.88;;
85815;SDS011;76552;51.206;4.424;2024-03-08T00:01:57;49.47;;;26.02;;
85815;SDS011;76552;51.206;4.424;2024-03-08T00:02:02;50.10;;;26.07;;
85815;SDS011;76552;51.206;4.424;2024-03-08T00:02:07;50.63;;;26.17;;
85815;SDS011;76552;51.206;4.424;2024-03-08T00:02:13;50.15;;;26.20;;
85815;SDS011;76552;51.206;4.424;2024-03-08T00:02:18;49.80;;;26.53;;
85815;SDS011;76552;51.206;4.424;2024-03-08T00:02:24;50.40;;;26.67;;
85815;SDS011;76552;51.206;4.424;2024-03-08T00:02:29;50.63;;;26.60;;
85815;SDS011;76552;51.206;4.424;2024-03-08T00:02:36;49.42;;;26.63;;
85815;SDS011;76552;51.206;4.424;2024-03-08T00:02:42;50.14;;;26.62;;
85815;SDS011;76552;51.206;4.424;2024-03-08T00:02:47;50.83;;;26.57;;
85815;SDS011;76552;51.206;4.424;2024-03-08T00:02:53;50.45;;;26.58;;
85815;SDS011;76552;51.206;4.424;2024-03-08T00:02:59;49.65;;;26.90;;
85815;SDS011;76552;51.206;4.424;2024-03-08T00:03:06;52.00;;;27.10;;
85815;SDS011;76552;51.206;4.424;2024-03-08T00:03:11;51.60;;;27.10;;
85815;SDS011;76552;51.206;4.424;2024-03-08T00:03:16;50.63;;;26.90;;
85815;SDS011;76552;51.206;4.424;2024-03-08T00:03:22;50.33;;;26.75;;
85815;SDS011;76552;51.206;4.424;2024-03-08T00:03:28;51.33;;;26.53;;
85815;SDS011;76552;51.206;4.424;2024-03-08T00:03:34;50.97;;;26.30;;
85815;SDS011;76552;51.206;4.424;2024-03-08T00:03:39;50.80;;;26.27;;
85815;SDS011;76552;51.206;4.424;2024-03-08T00:03:45;51.20;;;26.15;;
85815;SDS011;76552;51.206;4.424;2024-03-08T00:03:50;52.27;;;26.60;;
85815;SDS011;76552;51.206;4.424;2024-03-08T00:03:57;52.16;;;26.78;;
85815;SDS011;76552;51.206;4.424;2024-03-08T00:04:02;51.40;;;26.90;;
85815;SDS011;76552;51.206;4.424;2024-03-08T00:04:08;51.42;;;26.77;;
85815;SDS011;76552;51.206;4.424;2024-03-08T00:04:13;51.73;;;26.97;;
85815;SDS011;76552;51.206;4.424;2024-03-08T00:04:20;51.86;;;26.74;;
85815;SDS011;76552;51.206;4.424;2024-03-08T00:04:26;52.55;;;26.83;;
85815;SDS011;76552;51.206;4.424;2024-03-08T00:04:32;52.90;;;26.95;;
85815;SDS011;76552;51.206;4.424;2024-03-08T00:04:37;51.53;;;26.83;;
85815;SDS011;76552;51.206;4.424;2024-03-08T00:04:42;50.73;;;26.57;;
85815;SDS011;76552;51.206;4.424;2024-03-08T00:04:48;49.97;;;26.50;;
85815;SDS011;76552;51.206;4.424;2024-03-08T00:04:53;49.90;;;26.50;;
85815;SDS011;76552;51.206;4.424;2024-03-08T00:04:58;52.75;;;26.98;;
85815;SDS011;76552;51.206;4.424;2024-03-08T00:05:04;52.83;;;26.97;;
85815;SDS011;76552;51.206;4.424;2024-03-08T00:05:10;53.57;;;27.07;;
85815;SDS011;76552;51.206;4.424;2024-03-08T00:05:16;53.90;;;27.35;;
85815;SDS011;76552;51.206;4.424;2024-03-08T00:05:21;53.60;;;27.33;;
85815;SDS011;76552;51.206;4.424;2024-03-08T00:05:26;51.13;;;26.70;;
85815;SDS011;76552;51.206;4.424;2024-03-08T00:05:32;50.15;;;26.35;;
85815;SDS011;76552;51.206;4.424;2024-03-08T00:05:37;50.97;;;26.57;;
85815;SDS011;76552;51.206;4.424;2024-03-08T00:05:46;51.70;;;26.47;;
85815;SDS011;76552;51.206;4.424;2024-03-08T00:05:51;51.67;;;26.50;;
85815;SDS011;76552;51.206;4.424;2024-03-08T00:05:59;52.20;;;26.55;;
85815;SDS011;76552;51.206;4.424;2024-03-08T00:06:05;52.23;;;26.70;;
85815;SDS011;76552;51.206;4.424;2024-03-08T00:06:11;51.63;;;26.73;;
85815;SDS011;76552;51.206;4.424;2024-03-08T00:06:16;51.17;;;26.70;;
85815;SDS011;76552;51.206;4.424;2024-03-08T00:06:22;50.58;;;26.55;;
85815;SDS011;76552;51.206;4.424;2024-03-08T00:06:28;49.33;;;26.48;;
85815;SDS011;76552;51.206;4.424;2024-03-08T00:06:33;48.90;;;26.47;;
85815;SDS011;76552;51.206;4.424;2024-03-08T00:06:38;48.78;;;26.13;;
85815;SDS011;76552;51.206;4.424;2024-03-08T00:06:44;48.93;;;26.00;;
85815;SDS011;76552;51.206;4.424;2024-03-08T00:06:51;49.00;;;25.80;;
85815;SDS011;76552;51.206;4.424;2024-03-08T00:06:56;49.20;;;25.87;;
85815;SDS011;76552;51.206;4.424;2024-03-08T00:07:02;48.55;;;25.75;;
85815;SDS011;76552;51.206;4.424;2024-03-08T00:07:08;48.95;;;25.90;;
85815;SDS011;76552;51.206;4.424;2024-03-08T00:07:13;48.63;;;25.98;;
85815;SDS011;76552;51.206;4.424;2024-03-08T00:07:19;48.30;;;26.23;;
85815;SDS011;76552;51.206;4.424;2024-03-08T00:07:24;49.00;;;26.40;;
85815;SDS011;76552;51.206;4.424;2024-03-08T00:07:29;51.67;;;26.73;;
85815;SDS011;76552;51.206;4.424;2024-03-08T00:07:35;53.10;;;27.27;;
85815;SDS011;76552;51.206;4.424;2024-03-08T00:07:41;54.08;;;27.25;;
85815;SDS011;76552;51.206;4.424;2024-03-08T00:07:46;54.95;;;27.23;;
85815;SDS011;76552;51.206;4.424;2024-03-08T00:07:52;55.30;;;27.37;;
85815;SDS011;76552;51.206;4.424;2024-03-08T00:07:58;53.53;;;27.02;;
85815;SDS011;76552;51.206;4.424;2024-03-08T00:08:05;50.47;;;26.30;;
85815;SDS011;76552;51.206;4.424;2024-03-08T00:08:14;47.64;;;26.13;;
85815;SDS011;76552;51.206;4.424;2024-03-08T00:08:20;46.73;;;26.00;;
85815;SDS011;76552;51.206;4.424;2024-03-08T00:08:25;46.75;;;25.85;;
85815;SDS011;76552;51.206;4.424;2024-03-08T00:08:31;47.53;;;26.23;;
85815;SDS011;76552;51.206;4.424;2024-03-08T00:08:36;48.37;;;26.40;;
85815;SDS011;76552;51.206;4.424;2024-03-08T00:08:41;50.05;;;26.50;;
85815;SDS011;76552;51.206;4.424;2024-03-08T00:08:47;50.43;;;26.67;;
85815;SDS011;76552;51.206;4.424;2024-03-08T00:08:52;51.23;;;26.80;;
85815;SDS011;76552;51.206;4.424;2024-03-08T00:08:57;50.83;;;26.73;;
85815;SDS011;76552;51.206;4.424;2024-03-08T00:09:03;50.87;;;26.53;;
85815;SDS011;76552;51.206;4.424;2024-03-08T00:09:08;49.67;;;26.43;;
85815;SDS011;76552;51.206;4.424;2024-03-08T00:09:13;48.67;;;26.10;;
85815;SDS011;76552;51.206;4.424;2024-03-08T00:09:19;49.10;;;25.80;;
85815;SDS011;76552;51.206;4.424;2024-03-08T00:09:24;48.00;;;25.70;;
85815;SDS011;76552;51.206;4.424;2024-03-08T00:09:32;48.50;;;25.80;;
85815;SDS011;76552;51.206;4.424;2024-03-08T00:09:37;49.60;;;25.85;;
85815;SDS011;76552;51.206;4.424;2024-03-08T00:09:43;49.67;;;25.80;;
85815;SDS011;76552;51.206;4.424;2024-03-08T00:09:48;49.60;;;25.88;;
85815;SDS011;76552;51.206;4.424;2024-03-08T00:09:54;50.57;;;25.97;;
85815;SDS011;76552;51.206;4.424;2024-03-08T00:09:59;51.97;;;26.20;;
85815;SDS011;76552;51.206;4.424;2024-03-08T00:10:05;52.75;;;26.27;;
85815;SDS011;76552;51.206;4.424;2024-03-08T00:10:11;52.90;;;26.52;;
85815;SDS011;76552;51.206;4.424;2024-03-08T00:10:17;53.87;;;26.50;;
85815;SDS011;76552;51.206;4.424;2024-03-08T00:10:23;54.03;;;26.55;;
85815;SDS011;76552;51.206;4.424;2024-03-08T00:10:28;52.17;;;26.40;;
85815;SDS011;76552;51.206;4.424;2024-03-08T00:10:34;50.77;;;26.43;;
85815;SDS011;76552;51.206;4.424;2024-03-08T00:10:39;51.45;;;26.65;;
85815;SDS011;76552;51.206;4.424;2024-03-08T00:10:44;50.70;;;26.73;;
85815;SDS011;76552;51.206;4.424;2024-03-08T00:10:50;49.77;;;26.60;;
85815;SDS011;76552;51.206;4.424;2024-03-08T00:10:55;48.92;;;26.48;;
85815;SDS011;76552;51.206;4.424;2024-03-08T00:11:00;49.37;;;26.43;;
85815;SDS011;76552;51.206;4.424;2024-03-08T00:11:06;47.90;;;25.73;;
85815;SDS011;76552;51.206;4.424;2024-03-08T00:11:13;47.83;;;25.53;;
85815;SDS011;76552;51.206;4.424;2024-03-08T00:11:18;47.30;;;25.50;;
85815;SDS011;76552;51.206;4.424;2024-03-08T00:11:23;47.50;;;25.37;;
85815;SDS011;76552;51.206;4.424;2024-03-08T00:11:31;46.88;;;25.16;;
85815;SDS011;76552;51.206;4.424;2024-03-08T00:11:36;48.53;;;25.67;;
85815;SDS011;76552;51.206;4.424;2024-03-08T00:11:41;49.40;;;25.70;;
85815;SDS011;76552;51.206;4.424;2024-03-08T00:11:47;50.30;;;25.87;;
85815;SDS011;76552;51.206;4.424;2024-03-08T00:11:54;50.14;;;25.94;;
85815;SDS011;76552;51.206;4.424;2024-03-08T00:11:59;51.58;;;26.67;;
85815;SDS011;76552;51.206;4.424;2024-03-08T00:12:05;51.63;;;26.93;;
85815;SDS011;76552;51.206;4.424;2024-03-08T00:12:11;50.63;;;26.80;;
85815;SDS011;76552;51.206;4.424;2024-03-08T00:12:16;50.85;;;26.85;;
85815;SDS011;76552;51.206;4.424;2024-03-08T00:12:22;51.77;;;26.90;;
85815;SDS011;76552;51.206;4.424;2024-03-08T00:12:27;51.87;;;27.20;;
85815;SDS011;76552;51.206;4.424;2024-03-08T00:12:32;50.50;;;26.63;;
85815;SDS011;76552;51.206;4.424;2024-03-08T00:12:46;50.83;;;26.57;;
85815;SDS011;76552;51.206;4.424;2024-03-08T00:12:51;51.38;;;26.65;;
85815;SDS011;76552;51.206;4.424;2024-03-08T00:12:58;51.80;;;25.77;;
85815;SDS011;76552;51.206;4.424;2024-03-08T00:13:04;51.43;;;25.30;;
85815;SDS011;76552;51.206;4.424;2024-03-08T00:13:09;51.13;;;25.42;;
85815;SDS011;76552;51.206;4.424;2024-03-08T00:13:14;51.80;;;25.70;;
85815;SDS011;76552;51.206;4.424;2024-03-08T00:13:20;51.20;;;25.63;;
85815;SDS011;76552;51.206;4.424;2024-03-08T00:13:25;50.08;;;25.65;;
85815;SDS011;76552;51.206;4.424;2024-03-08T00:13:30;48.33;;;25.63;;
85815;SDS011;76552;51.206;4.424;2024-03-08T00:13:36;49.73;;;25.70;;
85815;SDS011;76552;51.206;4.424;2024-03-08T00:13:41;49.08;;;25.48;;
85815;SDS011;76552;51.206;4.424;2024-03-08T00:13:47;49.33;;;25.37;;
85815;SDS011;76552;51.206;4.424;2024-03-08T00:13:52;49.92;;;25.80;;
85815;SDS011;76552;51.206;4.424;2024-03-08T00:13:58;50.17;;;26.05;;
85815;SDS011;76552;51.206;4.424;2024-03-08T00:14:03;48.63;;;26.17;;
85815;SDS011;76552;51.206;4.424;2024-03-08T00:14:11;50.07;;;26.52;;
85815;SDS011;76552;51.206;4.424;2024-03-08T00:14:17;48.53;;;26.23;;
85815;SDS011;76552;51.206;4.424;2024-03-08T00:14:22;49.03;;;26.20;;
85815;SDS011;76552;51.206;4.424;2024-03-08T00:14:27;50.07;;;26.37;;
85815;SDS011;76552;51.206;4.424;2024-03-08T00:14:33;51.13;;;26.63;;
85815;SDS011;76552;51.206;4.424;2024-03-08T00:14:38;48.65;;;26.65;;
85815;SDS011;76552;51.206;4.424;2024-03-08T00:14:44;49.60;;;26.57;;
85815;SDS011;76552;51.206;4.424;2024-03-08T00:14:50;49.45;;;26.75;;
85815;SDS011;76552;51.206;4.424;2024-03-08T00:14:55;49.15;;;26.85;;
85815;SDS011;76552;51.206;4.424;2024-03-08T00:15:00;48.73;;;26.67;;
85815;SDS011;76552;51.206;4.424;2024-03-08T00:15:06;48.70;;;26.47;;
85815;SDS011;76552;51.206;4.424;2024-03-08T00:15:12;48.45;;;26.20;;
85815;SDS011;76552;51.206;4.424;2024-03-08T00:15:21;49.21;;;26.23;;
85815;SDS011;76552;51.206;4.424;2024-03-08T00:15:28;49.24;;;26.18;;
85815;SDS011;76552;51.206;4.424;2024-03-08T00:15:34;50.70;;;26.44;;
85815;SDS011;76552;51.206;4.424;2024-03-08T00:15:40;51.23;;;26.60;;
85815;SDS011;76552;51.206;4.424;2024-03-08T00:15:46;50.06;;;26.54;;
85815;SDS011;76552;51.206;4.424;2024-03-08T00:15:52;50.08;;;26.63;;
85815;SDS011;76552;51.206;4.424;2024-03-08T00:15:57;51.73;;;26.50;;
85815;SDS011;76552;51.206;4.424;2024-03-08T00:16:03;50.87;;;25.77;;
85815;SDS011;76552;51.206;4.424;2024-03-08T00:16:08;52.13;;;25.60;;
85815;SDS011;76552;51.206;4.424;2024-03-08T00:16:14;55.85;;;25.67;;
85815;SDS011;76552;51.206;4.424;2024-03-08T00:16:19;57.43;;;25.77;;
85815;SDS011;76552;51.206;4.424;2024-03-08T00:16:25;57.67;;;25.83;;
85815;SDS011;76552;51.206;4.424;2024-03-08T00:16:30;55.88;;;26.25;;
85815;SDS011;76552;51.206;4.424;2024-03-08T00:16:35;55.70;;;26.73;;
85815;SDS011;76552;51.206;4.424;2024-03-08T00:16:41;54.33;;;26.87;;
85815;SDS011;76552;51.206;4.424;2024-03-08T00:16:48;51.80;;;26.77;;
85815;SDS011;76552;51.206;4.424;2024-03-08T00:16:54;50.40;;;26.50;;
85815;SDS011;76552;51.206;4.424;2024-03-08T00:16:59;50.75;;;26.27;;
85815;SDS011;76552;51.206;4.424;2024-03-08T00:17:04;50.93;;;26.37;;
85815;SDS011;76552;51.206;4.424;2024-03-08T00:17:10;51.28;;;26.70;;
85815;SDS011;76552;51.206;4.424;2024-03-08T00:17:15;51.07;;;26.83;;
85815;SDS011;76552;51.206;4.424;2024-03-08T00:17:21;51.03;;;26.67;;
85815;SDS011;76552;51.206;4.424;2024-03-08T00:17:30;49.91;;;26.41;;
85815;SDS011;76552;51.206;4.424;2024-03-08T00:17:36;50.67;;;26.48;;
85815;SDS011;76552;51.206;4.424;2024-03-08T00:17:42;51.00;;;26.40;;
85815;SDS011;76552;51.206;4.424;2024-03-08T00:17:47;51.17;;;26.55;;
85815;SDS011;76552;51.206;4.424;2024-03-08T00:17:52;51.77;;;26.77;;
85815;SDS011;76552;51.206;4.424;2024-03-08T00:17:58;52.85;;;27.08;;
85815;SDS011;76552;51.206;4.424;2024-03-08T00:18:04;51.28;;;26.77;;
85815;SDS011;76552;51.206;4.424;2024-03-08T00:18:09;50.33;;;26.53;;
85815;SDS011;76552;51.206;4.424;2024-03-08T00:18:16;49.50;;;26.10;;
85815;SDS011;76552;51.206;4.424;2024-03-08T00:18:21;48.93;;;25.87;;
85815;SDS011;76552;51.206;4.424;2024-03-08T00:18:27;49.33;;;25.92;;
85815;SDS011;76552;51.206;4.424;2024-03-08T00:18:32;49.37;;;26.07;;
85815;SDS011;76552;51.206;4.424;2024-03-08T00:18:38;49.15;;;26.08;;
85815;SDS011;76552;51.206;4.424;2024-03-08T00:18:43;48.87;;;26.13;;
85815;SDS011;76552;51.206;4.424;2024-03-08T00:18:48;50.43;;;26.50;;
85815;SDS011;76552;51.206;4.424;2024-03-08T00:18:54;50.80;;;26.50;;
85815;SDS011;76552;51.206;4.424;2024-03-08T00:18:59;50.27;;;26.43;;
85815;SDS011;76552;51.206;4.424;2024-03-08T00:19:05;50.72;;;26.30;;
85815;SDS011;76552;51.206;4.424;2024-03-08T00:19:10;49.87;;;26.27;;
85815;SDS011;76552;51.206;4.424;2024-03-08T00:19:16;49.15;;;26.40;;
85815;SDS011;76552;51.206;4.424;2024-03-08T00:19:22;48.80;;;26.45;;
85815;SDS011;76552;51.206;4.424;2024-03-08T00:19:27;49.90;;;26.80;;
85815;SDS011;76552;51.206;4.424;2024-03-08T00:19:32;51.07;;;26.90;;
85815;SDS011;76552;51.206;4.424;2024-03-08T00:19:38;51.20;;;27.08;;
85815;SDS011;76552;51.206;4.424;2024-03-08T00:19:46;51.67;;;26.98;;
85815;SDS011;76552;51.206;4.424;2024-03-08T00:19:51;51.38;;;26.75;;
85815;SDS011;76552;51.206;4.424;2024-03-08T00:19:57;50.87;;;26.43;;
85815;SDS011;76552;51.206;4.424;2024-03-08T00:20:03;50.78;;;26.17;;
85815;SDS011;76552;51.206;4.424;2024-03-08T00:20:13;50.60;;;26.10;;
85815;SDS011;76552;51.206;4.424;2024-03-08T00:20:18;50.67;;;26.27;;
85815;SDS011;76552;51.206;4.424;2024-03-08T00:20:24;50.50;;;26.65;;
85815;SDS011;76552;51.206;4.424;2024-03-08T00:20:29;50.10;;;26.43;;
85815;SDS011;76552;51.206;4.424;2024-03-08T00:20:34;49.97;;;26.63;;
85815;SDS011;76552;51.206;4.424;2024-03-08T00:20:40;50.38;;;26.77;;
85815;SDS011;76552;51.206;4.424;2024-03-08T00:20:46;49.35;;;26.42;;
85815;SDS011;76552;51.206;4.424;2024-03-08T00:20:51;50.33;;;25.83;;
85815;SDS011;76552;51.206;4.424;2024-03-08T00:20:56;50.08;;;26.08;;
85815;SDS011;76552;51.206;4.424;2024-03-08T00:21:02;50.20;;;26.20;;
85815;SDS011;76552;51.206;4.424;2024-03-08T00:21:07;50.10;;;26.13;;
85815;SDS011;76552;51.206;4.424;2024-03-08T00:21:14;49.90;;;26.12;;
85815;SDS011;76552;51.206;4.424;2024-03-08T00:21:20;49.17;;;26.60;;
85815;SDS011;76552;51.206;4.424;2024-03-08T00:21:25;49.38;;;26.83;;
85815;SDS011;76552;51.206;4.424;2024-03-08T00:21:32;49.20;;;27.13;;
85815;SDS011;76552;51.206;4.424;2024-03-08T00:21:37;49.50;;;27.10;;
85815;SDS011;76552;51.206;4.424;2024-03-08T00:21:42;49.77;;;27.30;;
85815;SDS011;76552;51.206;4.424;2024-03-08T00:21:47;51.00;;;27.38;;
85815;SDS011;76552;51.206;4.424;2024-03-08T00:21:53;51.87;;;27.00;;
85815;SDS011;76552;51.206;4.424;2024-03-08T00:21:58;51.97;;;26.73;;
85815;SDS011;76552;51.206;4.424;2024-03-08T00:22:04;51.75;;;26.85;;
85815;SDS011;76552;51.206;4.424;2024-03-08T00:22:09;51.67;;;26.77;;
85815;SDS011;76552;51.206;4.424;2024-03-08T00:22:17;51.33;;;26.53;;
85815;SDS011;76552;51.206;4.424;2024-03-08T00:22:22;49.95;;;26.50;;
85815;SDS011;76552;51.206;4.424;2024-03-08T00:22:27;50.67;;;26.63;;
85815;SDS011;76552;51.206;4.424;2024-03-08T00:22:38;52.04;;;26.82;;
85815;SDS011;76552;51.206;4.424;2024-03-08T00:22:43;52.52;;;26.73;;
85815;SDS011;76552;51.206;4.424;2024-03-08T00:22:49;53.00;;;26.73;;
85815;SDS011;76552;51.206;4.424;2024-03-08T00:22:54;52.17;;;26.67;;
85815;SDS011;76552;51.206;4.424;2024-03-08T00:23:02;50.67;;;25.84;;
85815;SDS011;76552;51.206;4.424;2024-03-08T00:23:08;50.33;;;25.77;;
85815;SDS011;76552;51.206;4.424;2024-03-08T00:23:13;50.60;;;26.17;;
85815;SDS011;76552;51.206;4.424;2024-03-08T00:23:20;50.86;;;26.54;;
85815;SDS011;76552;51.206;4.424;2024-03-08T00:23:26;51.23;;;26.90;;
85815;SDS011;76552;51.206;4.424;2024-03-08T00:23:32;50.70;;;27.20;;
85815;SDS011;76552;51.206;4.424;2024-03-08T00:23:38;50.87;;;27.23;;
85815;SDS011;76552;51.206;4.424;2024-03-08T00:23:44;50.13;;;26.88;;
85815;SDS011;76552;51.206;4.424;2024-03-08T00:23:49;49.10;;;26.45;;
85815;SDS011;76552;51.206;4.424;2024-03-08T00:23:55;49.23;;;26.63;;
85815;SDS011;76552;51.206;4.424;2024-03-08T00:24:00;48.40;;;26.23;;
85815;SDS011;76552;51.206;4.424;2024-03-08T00:24:05;48.13;;;26.38;;
85815;SDS011;76552;51.206;4.424;2024-03-08T00:24:11;47.77;;;26.37;;
85815;SDS011;76552;51.206;4.424;2024-03-08T00:24:17;48.07;;;26.43;;
85815;SDS011;76552;51.206;4.424;2024-03-08T00:24:22;48.10;;;26.08;;
85815;SDS011;76552;51.206;4.424;2024-03-08T00:24:30;48.98;;;25.90;;
85815;SDS011;76552;51.206;4.424;2024-03-08T00:24:36;49.55;;;25.85;;
85815;SDS011;76552;51.206;4.424;2024-03-08T00:24:42;50.13;;;26.02;;
85815;SDS011;76552;51.206;4.424;2024-03-08T00:24:48;50.47;;;25.98;;
85815;SDS011;76552;51.206;4.424;2024-03-08T00:24:55;51.65;;;26.37;;
85815;SDS011;76552;51.206;4.424;2024-03-08T00:25:01;51.23;;;26.70;;
85815;SDS011;76552;51.206;4.424;2024-03-08T00:25:07;51.38;;;26.63;;
85815;SDS011;76552;51.206;4.424;2024-03-08T00:25:17;50.70;;;26.33;;
85815;SDS011;76552;51.206;4.424;2024-03-08T00:25:23;49.83;;;26.15;;
85815;SDS011;76552;51.206;4.424;2024-03-08T00:25:28;50.03;;;25.75;;
85815;SDS011;76552;51.206;4.424;2024-03-08T00:25:34;49.33;;;25.53;;
85815;SDS011;76552;51.206;4.424;2024-03-08T00:25:39;50.13;;;25.60;;
85815;SDS011;76552;51.206;4.424;2024-03-08T00:25:44;50.45;;;25.65;;
85815;SDS011;76552;51.206;4.424;2024-03-08T00:25:50;48.97;;;25.40;;
85815;SDS011;76552;51.206;4.424;2024-03-08T00:25:56;49.20;;;25.83;;
85815;SDS011;76552;51.206;4.424;2024-03-08T00:26:01;49.17;;;26.10;;
85815;SDS011;76552;51.206;4.424;2024-03-08T00:26:08;48.53;;;25.77;;
85815;SDS011;76552;51.206;4.424;2024-03-08T00:26:14;47.92;;;25.70;;
85815;SDS011;76552;51.206;4.424;2024-03-08T00:26:20;48.73;;;26.00;;
85815;SDS011;76552;51.206;4.424;2024-03-08T00:26:29;49.44;;;25.86;;
85815;SDS011;76552;51.206;4.424;2024-03-08T00:26:35;49.20;;;25.87;;
85815;SDS011;76552;51.206;4.424;2024-03-08T00:26:40;49.50;;;26.02;;
85815;SDS011;76552;51.206;4.424;2024-03-08T00:26:47;50.00;;;26.13;;
85815;SDS011;76552;51.206;4.424;2024-03-08T00:26:53;51.00;;;26.63;;
85815;SDS011;76552;51.206;4.424;2024-03-08T00:26:59;51.72;;;26.73;;
85815;SDS011;76552;51.206;4.424;2024-03-08T00:27:04;52.08;;;26.70;;
85815;SDS011;76552;51.206;4.424;2024-03-08T00:27:11;51.73;;;26.60;;
85815;SDS011;76552;51.206;4.424;2024-03-08T00:27:16;50.90;;;26.42;;
85815;SDS011;76552;51.206;4.424;2024-03-08T00:27:22;49.60;;;25.70;;
85815;SDS011;76552;51.206;4.424;2024-03-08T00:27:27;48.20;;;25.40;;
85815;SDS011;76552;51.206;4.424;2024-03-08T00:27:33;47.70;;;25.03;;
85815;SDS011;76552;51.206;4.424;2024-03-08T00:27:39;47.10;;;24.90;;
85815;SDS011;76552;51.206;4.424;2024-03-08T00:27:44;47.25;;;25.08;;
85815;SDS011;76552;51.206;4.424;2024-03-08T00:27:50;47.33;;;25.30;;
85815;SDS011;76552;51.206;4.424;2024-03-08T00:27:55;47.70;;;25.25;;
85815;SDS011;76552;51.206;4.424;2024-03-08T00:28:01;46.87;;;25.20;;
85815;SDS011;76552;51.206;4.424;2024-03-08T00:28:06;47.10;;;25.38;;
85815;SDS011;76552;51.206;4.424;2024-03-08T00:28:11;47.57;;;25.17;;
85815;SDS011;76552;51.206;4.424;2024-03-08T00:28:20;47.65;;;25.20;;
85815;SDS011;76552;51.206;4.424;2024-03-08T00:28:25;47.40;;;25.23;;
85815;SDS011;76552;51.206;4.424;2024-03-08T00:28:32;48.60;;;25.24;;
85815;SDS011;76552;51.206;4.424;2024-03-08T00:28:39;48.83;;;25.50;;
85815;SDS011;76552;51.206;4.424;2024-03-08T00:28:44;49.43;;;25.67;;
85815;SDS011;76552;51.206;4.424;2024-03-08T00:28:50;49.10;;;25.47;;
85815;SDS011;76552;51.206;4.424;2024-03-08T00:28:55;49.08;;;25.65;;
85815;SDS011;76552;51.206;4.424;2024-03-08T00:29:00;48.27;;;25.77;;
85815;SDS011;76552;51.206;4.424;2024-03-08T00:29:06;48.27;;;25.90;;
85815;SDS011;76552;51.206;4.424;2024-03-08T00:29:12;47.80;;;25.73;;
85815;SDS011;76552;51.206;4.424;2024-03-08T00:29:18;47.60;;;26.02;;
85815;SDS011;76552;51.206;4.424;2024-03-08T00:29:23;48.00;;;26.00;;
85815;SDS011;76552;51.206;4.424;2024-03-08T00:29:28;48.50;;;25.80;;
85815;SDS011;76552;51.206;4.424;2024-03-08T00:29:34;49.78;;;25.70;;
85815;SDS011;76552;51.206;4.424;2024-03-08T00:29:39;48.90;;;25.47;;
85815;SDS011;76552;51.206;4.424;2024-03-08T00:29:45;50.28;;;25.48;;
85815;SDS011;76552;51.206;4.424;2024-03-08T00:29:52;52.23;;;25.70;;
85815;SDS011;76552;51.206;4.424;2024-03-08T00:29:57;53.15;;;26.40;;
85815;SDS011;76552;51.206;4.424;2024-03-08T00:30:03;52.93;;;26.53;;
85815;SDS011;76552;51.206;4.424;2024-03-08T00:30:08;52.22;;;26.42;;
85815;SDS011;76552;51.206;4.424;2024-03-08T00:30:14;51.40;;;26.35;;
85815;SDS011;76552;51.206;4.424;2024-03-08T00:30:19;49.60;;;25.83;;
85815;SDS011;76552;51.206;4.424;2024-03-08T00:30:26;48.73;;;25.70;;
85815;SDS011;76552;51.206;4.424;2024-03-08T00:30:31;47.63;;;25.55;;
85815;SDS011;76552;51.206;4.424;2024-03-08T00:30:36;48.10;;;25.60;;
85815;SDS011;76552;51.206;4.424;2024-03-08T00:30:42;48.60;;;26.08;;
85815;SDS011;76552;51.206;4.424;2024-03-08T00:30:48;48.80;;;26.35;;
85815;SDS011;76552;51.206;4.424;2024-03-08T00:30:53;49.17;;;26.27;;
85815;SDS011;76552;51.206;4.424;2024-03-08T00:30:59;48.80;;;26.03;;
85815;SDS011;76552;51.206;4.424;2024-03-08T00:31:04;48.95;;;26.05;;
85815;SDS011;76552;51.206;4.424;2024-03-08T00:31:09;49.23;;;26.07;;
85815;SDS011;76552;51.206;4.424;2024-03-08T00:31:15;48.93;;;25.70;;
85815;SDS011;76552;51.206;4.424;2024-03-08T00:31:23;47.61;;;26.21;;
85815;SDS011;76552;51.206;4.424;2024-03-08T00:31:28;47.03;;;26.40;;
85815;SDS011;76552;51.206;4.424;2024-03-08T00:31:35;46.93;;;26.50;;
85815;SDS011;76552;51.206;4.424;2024-03-08T00:31:41;47.70;;;26.58;;
85815;SDS011;76552;51.206;4.424;2024-03-08T00:31:46;47.63;;;26.57;;
85815;SDS011;76552;51.206;4.424;2024-03-08T00:31:51;48.50;;;26.27;;
85815;SDS011;76552;51.206;4.424;2024-03-08T00:31:57;49.28;;;26.00;;
85815;SDS011;76552;51.206;4.424;2024-03-08T00:32:03;49.10;;;25.73;;
85815;SDS011;76552;51.206;4.424;2024-03-08T00:32:08;49.45;;;26.13;;
85815;SDS011;76552;51.206;4.424;2024-03-08T00:32:14;50.40;;;26.60;;
85815;SDS011;76552;51.206;4.424;2024-03-08T00:32:19;50.93;;;26.60;;
85815;SDS011;76552;51.206;4.424;2024-03-08T00:32:24;50.87;;;26.87;;
85815;SDS011;76552;51.206;4.424;2024-03-08T00:32:30;51.88;;;27.08;;
85815;SDS011;76552;51.206;4.424;2024-03-08T00:32:36;51.07;;;26.63;;
85815;SDS011;76552;51.206;4.424;2024-03-08T00:32:42;49.20;;;26.08;;
85815;SDS011;76552;51.206;4.424;2024-03-08T00:32:48;48.67;;;25.95;;
85815;SDS011;76552;51.206;4.424;2024-03-08T00:32:53;47.30;;;25.63;;
85815;SDS011;76552;51.206;4.424;2024-03-08T00:32:59;46.70;;;25.33;;
85815;SDS011;76552;51.206;4.424;2024-03-08T00:33:04;47.07;;;25.23;;
85815;SDS011;76552;51.206;4.424;2024-03-08T00:33:10;48.00;;;25.52;;
85815;SDS011;76552;51.206;4.424;2024-03-08T00:33:15;49.13;;;25.87;;
85815;SDS011;76552;51.206;4.424;2024-03-08T00:33:21;49.13;;;25.95;;
85815;SDS011;76552;51.206;4.424;2024-03-08T00:33:26;50.67;;;26.37;;
85815;SDS011;76552;51.206;4.424;2024-03-08T00:33:32;51.07;;;26.73;;
85815;SDS011;76552;51.206;4.424;2024-03-08T00:33:38;50.50;;;26.48;;
85815;SDS011;76552;51.206;4.424;2024-03-08T00:33:44;49.17;;;25.92;;
85815;SDS011;76552;51.206;4.424;2024-03-08T00:33:49;48.90;;;26.08;;
85815;SDS011;76552;51.206;4.424;2024-03-08T00:33:55;48.23;;;26.00;;
85815;SDS011;76552;51.206;4.424;2024-03-08T00:34:01;46.72;;;25.83;;
85815;SDS011;76552;51.206;4.424;2024-03-08T00:34:07;46.22;;;26.10;;